sensor_id;sensor_type;location;lat;lon;timestamp;pressure;altitude;pressure_sealevel;temperature;humidity
8051;BME280;4068;42.158;24.732;2023-04-24T00:00:12;99508.56;;;9.67;100.00
8051;BME280;4068;42.158;24.732;2023-04-24T00:02:39;99533.38;;;9.77;100.00
8051;BME280;4068;42.158;24.732;2023-04-24T00:05:06;99530.97;;;9.74;100.00
8051;BME280;4068;42.158;24.732;2023-04-24T00:07:31;99531.56;;;9.66;100.00
8051;BME280;4068;42.158;24.732;2023-04-24T00:09:57;99530.94;;;9.63;100.00
8051;BME280;4068;42.158;24.732;2023-04-24T00:12:23;99536.72;;;9.57;100.00
8051;BME280;4068;42.158;24.732;2023-04-24T00:14:49;99529.25;;;9.50;100.00
8051;BME280;4068;42.158;24.732;2023-04-24T00:17:14;99535.13;;;9.43;100.00
8051;BME280;4068;42.158;24.732;2023-04-24T00:19:40;99535.47;;;9.38;100.00
8051;BME280;4068;42.158;24.732;2023-04-24T00:22:05;99536.78;;;9.32;100.00
8051;BME280;4068;42.158;24.732;2023-04-24T00:24:31;99539.78;;;9.28;100.00
8051;BME280;4068;42.158;24.732;2023-04-24T00:26:57;99531.56;;;9.20;100.00
8051;BME280;4068;42.158;24.732;2023-04-24T00:29:22;99524.94;;;9.14;100.00
8051;BME280;4068;42.158;24.732;2023-04-24T00:31:48;99526.69;;;9.02;100.00
8051;BME280;4068;42.158;24.732;2023-04-24T00:34:13;99514.97;;;8.93;100.00
8051;BME280;4068;42.158;24.732;2023-04-24T00:36:39;99511.22;;;8.85;100.00
8051;BME280;4068;42.158;24.732;2023-04-24T00:39:05;99518.44;;;8.83;100.00
8051;BME280;4068;42.158;24.732;2023-04-24T00:41:30;99515.16;;;8.79;100.00
8051;BME280;4068;42.158;24.732;2023-04-24T00:43:56;99507.16;;;8.68;100.00
8051;BME280;4068;42.158;24.732;2023-04-24T00:46:21;99508.75;;;8.70;100.00
8051;BME280;4068;42.158;24.732;2023-04-24T00:48:47;99510.03;;;8.64;100.00
8051;BME280;4068;42.158;24.732;2023-04-24T00:51:12;99522.06;;;8.69;100.00
8051;BME280;4068;42.158;24.732;2023-04-24T00:53:38;99527.19;;;8.59;100.00
8051;BME280;4068;42.158;24.732;2023-04-24T00:56:04;99530.88;;;8.56;100.00
8051;BME280;4068;42.158;24.732;2023-04-24T00:58:30;99525.34;;;8.48;100.00
8051;BME280;4068;42.158;24.732;2023-04-24T01:00:56;99514.31;;;8.41;100.00
8051;BME280;4068;42.158;24.732;2023-04-24T01:03:25;99528.25;;;8.43;100.00
8051;BME280;4068;42.158;24.732;2023-04-24T01:05:52;99527.41;;;8.43;100.00
8051;BME280;4068;42.158;24.732;2023-04-24T01:08:17;99532.94;;;8.40;100.00
8051;BME280;4068;42.158;24.732;2023-04-24T01:10:43;99512.66;;;8.27;100.00
8051;BME280;4068;42.158;24.732;2023-04-24T01:13:10;99513.94;;;8.22;100.00
8051;BME280;4068;42.158;24.732;2023-04-24T01:15:35;99527.69;;;8.27;100.00
8051;BME280;4068;42.158;24.732;2023-04-24T01:18:01;99508.03;;;8.18;100.00
8051;BME280;4068;42.158;24.732;2023-04-24T01:20:27;99515.44;;;8.13;100.00
8051;BME280;4068;42.158;24.732;2023-04-24T01:22:56;99518.53;;;8.07;100.00
8051;BME280;4068;42.158;24.732;2023-04-24T01:25:23;99501.63;;;7.97;100.00
8051;BME280;4068;42.158;24.732;2023-04-24T01:27:49;99484.00;;;7.84;100.00
8051;BME280;4068;42.158;24.732;2023-04-24T01:30:15;99524.53;;;7.96;100.00
8051;BME280;4068;42.158;24.732;2023-04-24T01:32:41;99534.78;;;7.88;100.00
8051;BME280;4068;42.158;24.732;2023-04-24T01:35:09;99531.09;;;7.77;100.00
8051;BME280;4068;42.158;24.732;2023-04-24T01:37:35;99538.31;;;7.75;100.00
8051;BME280;4068;42.158;24.732;2023-04-24T01:40:03;99522.47;;;7.63;100.00
8051;BME280;4068;42.158;24.732;2023-04-24T01:42:29;99524.88;;;7.53;100.00
8051;BME280;4068;42.158;24.732;2023-04-24T01:44:56;99512.63;;;7.39;100.00
8051;BME280;4068;42.158;24.732;2023-04-24T01:47:22;99526.34;;;7.44;100.00
8051;BME280;4068;42.158;24.732;2023-04-24T01:49:48;99502.16;;;7.37;100.00
8051;BME280;4068;42.158;24.732;2023-04-24T01:52:16;99510.72;;;7.41;100.00
8051;BME280;4068;42.158;24.732;2023-04-24T01:54:43;99530.34;;;7.37;100.00
8051;BME280;4068;42.158;24.732;2023-04-24T01:57:08;99528.31;;;7.28;100.00
8051;BME280;4068;42.158;24.732;2023-04-24T01:59:34;99486.59;;;6.94;100.00
8051;BME280;4068;42.158;24.732;2023-04-24T02:02:00;99491.22;;;6.90;100.00
8051;BME280;4068;42.158;24.732;2023-04-24T02:04:25;99511.78;;;6.98;100.00
8051;BME280;4068;42.158;24.732;2023-04-24T02:06:50;99513.91;;;6.93;100.00
8051;BME280;4068;42.158;24.732;2023-04-24T02:09:16;99503.84;;;6.85;100.00
8051;BME280;4068;42.158;24.732;2023-04-24T02:11:41;99495.72;;;6.76;100.00
8051;BME280;4068;42.158;24.732;2023-04-24T02:14:07;99508.50;;;6.82;100.00
8051;BME280;4068;42.158;24.732;2023-04-24T02:16:32;99494.34;;;6.70;100.00
8051;BME280;4068;42.158;24.732;2023-04-24T02:18:58;99487.84;;;6.61;100.00
8051;BME280;4068;42.158;24.732;2023-04-24T02:21:23;99479.41;;;6.56;100.00
8051;BME280;4068;42.158;24.732;2023-04-24T02:23:49;99470.56;;;6.57;100.00
8051;BME280;4068;42.158;24.732;2023-04-24T02:26:14;99497.59;;;6.73;100.00
8051;BME280;4068;42.158;24.732;2023-04-24T02:28:40;99484.94;;;6.66;100.00
8051;BME280;4068;42.158;24.732;2023-04-24T02:31:06;99492.53;;;6.70;100.00
8051;BME280;4068;42.158;24.732;2023-04-24T02:33:31;99491.69;;;6.70;100.00
8051;BME280;4068;42.158;24.732;2023-04-24T02:35:57;99489.06;;;6.70;100.00
8051;BME280;4068;42.158;24.732;2023-04-24T02:38:22;99486.53;;;6.68;100.00
8051;BME280;4068;42.158;24.732;2023-04-24T02:40:48;99481.75;;;6.61;100.00
8051;BME280;4068;42.158;24.732;2023-04-24T02:43:13;99490.31;;;6.64;100.00
8051;BME280;4068;42.158;24.732;2023-04-24T02:45:38;99493.66;;;6.66;100.00
8051;BME280;4068;42.158;24.732;2023-04-24T02:48:04;99477.66;;;6.69;100.00
8051;BME280;4068;42.158;24.732;2023-04-24T02:50:29;99465.81;;;6.62;100.00
8051;BME280;4068;42.158;24.732;2023-04-24T02:52:55;99473.16;;;6.71;100.00
8051;BME280;4068;42.158;24.732;2023-04-24T02:55:20;99492.88;;;6.79;100.00
8051;BME280;4068;42.158;24.732;2023-04-24T02:57:46;99488.53;;;6.78;100.00
8051;BME280;4068;42.158;24.732;2023-04-24T03:00:12;99461.00;;;6.69;100.00
8051;BME280;4068;42.158;24.732;2023-04-24T03:02:38;99481.06;;;6.71;100.00
8051;BME280;4068;42.158;24.732;2023-04-24T03:05:04;99492.56;;;6.83;100.00
8051;BME280;4068;42.158;24.732;2023-04-24T03:07:29;99472.00;;;6.76;100.00
8051;BME280;4068;42.158;24.732;2023-04-24T03:09:56;99487.72;;;6.77;100.00
8051;BME280;4068;42.158;24.732;2023-04-24T03:12:23;99497.19;;;7.07;100.00
8051;BME280;4068;42.158;24.732;2023-04-24T03:14:49;99490.97;;;7.59;100.00
8051;BME280;4068;42.158;24.732;2023-04-24T03:17:14;99496.06;;;7.75;100.00
8051;BME280;4068;42.158;24.732;2023-04-24T03:19:40;99483.28;;;7.69;100.00
8051;BME280;4068;42.158;24.732;2023-04-24T03:22:05;99479.78;;;7.82;100.00
8051;BME280;4068;42.158;24.732;2023-04-24T03:24:31;99511.56;;;7.93;100.00
8051;BME280;4068;42.158;24.732;2023-04-24T03:26:56;99489.63;;;7.80;100.00
8051;BME280;4068;42.158;24.732;2023-04-24T03:29:22;99514.31;;;8.04;100.00
8051;BME280;4068;42.158;24.732;2023-04-24T03:31:47;99522.75;;;8.09;100.00
8051;BME280;4068;42.158;24.732;2023-04-24T03:34:13;99518.91;;;8.13;100.00
8051;BME280;4068;42.158;24.732;2023-04-24T03:36:38;99527.25;;;8.20;100.00
8051;BME280;4068;42.158;24.732;2023-04-24T03:39:04;99522.47;;;8.38;100.00
8051;BME280;4068;42.158;24.732;2023-04-24T03:41:29;99508.72;;;8.46;100.00
8051;BME280;4068;42.158;24.732;2023-04-24T03:43:55;99520.25;;;8.69;100.00
8051;BME280;4068;42.158;24.732;2023-04-24T03:46:21;99516.19;;;8.52;100.00
8051;BME280;4068;42.158;24.732;2023-04-24T03:48:46;99522.06;;;8.44;100.00
8051;BME280;4068;42.158;24.732;2023-04-24T03:51:12;99511.16;;;8.36;100.00
8051;BME280;4068;42.158;24.732;2023-04-24T03:53:37;99507.91;;;8.33;100.00
8051;BME280;4068;42.158;24.732;2023-04-24T03:56:03;99525.53;;;8.45;100.00
8051;BME280;4068;42.158;24.732;2023-04-24T03:58:28;99498.56;;;8.40;100.00
8051;BME280;4068;42.158;24.732;2023-04-24T04:00:53;99507.56;;;8.50;100.00
8051;BME280;4068;42.158;24.732;2023-04-24T04:03:19;99510.03;;;8.64;100.00
8051;BME280;4068;42.158;24.732;2023-04-24T04:05:44;99487.09;;;8.65;100.00
8051;BME280;4068;42.158;24.732;2023-04-24T04:08:10;99494.22;;;8.76;100.00
8051;BME280;4068;42.158;24.732;2023-04-24T04:10:35;99503.91;;;8.88;100.00
8051;BME280;4068;42.158;24.732;2023-04-24T04:13:01;99531.81;;;9.17;100.00
8051;BME280;4068;42.158;24.732;2023-04-24T04:15:26;99545.91;;;9.28;100.00
8051;BME280;4068;42.158;24.732;2023-04-24T04:17:52;99494.72;;;9.05;100.00
8051;BME280;4068;42.158;24.732;2023-04-24T04:20:17;99546.44;;;9.45;100.00
8051;BME280;4068;42.158;24.732;2023-04-24T04:22:42;99553.28;;;9.47;100.00
8051;BME280;4068;42.158;24.732;2023-04-24T04:25:08;99557.16;;;9.19;100.00
8051;BME280;4068;42.158;24.732;2023-04-24T04:27:34;99536.84;;;9.20;100.00
8051;BME280;4068;42.158;24.732;2023-04-24T04:30:04;99554.28;;;9.46;100.00
8051;BME280;4068;42.158;24.732;2023-04-24T04:32:33;99560.16;;;9.50;100.00
8051;BME280;4068;42.158;24.732;2023-04-24T04:34:59;99559.44;;;9.48;100.00
8051;BME280;4068;42.158;24.732;2023-04-24T04:37:32;99564.78;;;9.59;100.00
8051;BME280;4068;42.158;24.732;2023-04-24T04:39:59;99552.25;;;9.61;100.00
8051;BME280;4068;42.158;24.732;2023-04-24T04:42:25;99560.72;;;9.78;100.00
8051;BME280;4068;42.158;24.732;2023-04-24T04:44:52;99564.34;;;9.99;100.00
8051;BME280;4068;42.158;24.732;2023-04-24T04:47:18;99567.59;;;10.03;100.00
8051;BME280;4068;42.158;24.732;2023-04-24T04:49:45;99577.94;;;10.29;100.00
8051;BME280;4068;42.158;24.732;2023-04-24T04:52:11;99573.84;;;10.59;100.00
8051;BME280;4068;42.158;24.732;2023-04-24T04:54:36;99573.84;;;10.70;100.00
8051;BME280;4068;42.158;24.732;2023-04-24T04:57:01;99571.28;;;10.80;100.00
8051;BME280;4068;42.158;24.732;2023-04-24T04:59:27;99562.44;;;11.02;100.00
8051;BME280;4068;42.158;24.732;2023-04-24T05:01:52;99533.59;;;10.97;100.00
8051;BME280;4068;42.158;24.732;2023-04-24T05:04:18;99527.44;;;11.08;100.00
8051;BME280;4068;42.158;24.732;2023-04-24T05:06:43;99556.34;;;11.44;100.00
8051;BME280;4068;42.158;24.732;2023-04-24T05:09:09;99524.81;;;11.71;100.00
8051;BME280;4068;42.158;24.732;2023-04-24T05:11:34;99552.19;;;12.14;100.00
8051;BME280;4068;42.158;24.732;2023-04-24T05:14:00;99530.59;;;12.07;99.67
8051;BME280;4068;42.158;24.732;2023-04-24T05:16:26;99548.44;;;11.96;99.76
8051;BME280;4068;42.158;24.732;2023-04-24T05:18:51;99551.03;;;12.17;99.90
8051;BME280;4068;42.158;24.732;2023-04-24T05:21:16;99513.44;;;12.21;99.82
8051;BME280;4068;42.158;24.732;2023-04-24T05:23:42;99538.56;;;12.48;99.30
8051;BME280;4068;42.158;24.732;2023-04-24T05:26:07;99536.50;;;12.21;98.88
8051;BME280;4068;42.158;24.732;2023-04-24T05:28:33;99536.00;;;11.96;100.00
8051;BME280;4068;42.158;24.732;2023-04-24T05:30:59;99528.25;;;11.93;100.00
8051;BME280;4068;42.158;24.732;2023-04-24T05:33:24;99531.09;;;12.01;100.00
8051;BME280;4068;42.158;24.732;2023-04-24T05:35:50;99518.59;;;12.13;100.00
8051;BME280;4068;42.158;24.732;2023-04-24T05:38:16;99513.34;;;12.33;100.00
8051;BME280;4068;42.158;24.732;2023-04-24T05:40:47;99512.13;;;12.56;99.71
8051;BME280;4068;42.158;24.732;2023-04-24T05:43:13;99495.38;;;12.75;98.65
8051;BME280;4068;42.158;24.732;2023-04-24T05:45:38;99509.63;;;13.23;97.44
8051;BME280;4068;42.158;24.732;2023-04-24T05:48:04;99501.66;;;13.23;94.60
8051;BME280;4068;42.158;24.732;2023-04-24T05:50:30;99501.66;;;13.13;94.60
8051;BME280;4068;42.158;24.732;2023-04-24T05:52:56;99515.53;;;12.98;96.20
8051;BME280;4068;42.158;24.732;2023-04-24T05:55:27;99485.81;;;12.63;98.15
8051;BME280;4068;42.158;24.732;2023-04-24T05:57:53;99495.75;;;12.71;98.65
8051;BME280;4068;42.158;24.732;2023-04-24T06:00:19;99511.59;;;12.82;98.87
8051;BME280;4068;42.158;24.732;2023-04-24T06:02:45;99515.50;;;12.78;99.08
8051;BME280;4068;42.158;24.732;2023-04-24T06:05:11;99504.19;;;12.86;99.39
8051;BME280;4068;42.158;24.732;2023-04-24T06:07:37;99495.50;;;12.93;98.28
8051;BME280;4068;42.158;24.732;2023-04-24T06:10:02;99523.66;;;13.06;98.16
8051;BME280;4068;42.158;24.732;2023-04-24T06:12:28;99526.19;;;13.17;98.61
8051;BME280;4068;42.158;24.732;2023-04-24T06:14:53;99490.47;;;13.00;98.67
8051;BME280;4068;42.158;24.732;2023-04-24T06:17:20;99518.06;;;13.28;98.44
8051;BME280;4068;42.158;24.732;2023-04-24T06:19:46;99521.84;;;13.26;97.81
8051;BME280;4068;42.158;24.732;2023-04-24T06:22:12;99509.34;;;13.46;98.43
8051;BME280;4068;42.158;24.732;2023-04-24T06:24:37;99518.03;;;13.48;98.35
8051;BME280;4068;42.158;24.732;2023-04-24T06:27:03;99513.47;;;13.78;97.27
8051;BME280;4068;42.158;24.732;2023-04-24T06:29:28;99495.53;;;13.80;96.42
8051;BME280;4068;42.158;24.732;2023-04-24T06:31:53;99510.22;;;13.94;96.32
8051;BME280;4068;42.158;24.732;2023-04-24T06:34:19;99505.94;;;14.11;95.55
8051;BME280;4068;42.158;24.732;2023-04-24T06:36:44;99514.91;;;14.38;93.72
8051;BME280;4068;42.158;24.732;2023-04-24T06:39:10;99517.78;;;14.54;91.76
8051;BME280;4068;42.158;24.732;2023-04-24T06:41:35;99517.16;;;14.70;92.22
8051;BME280;4068;42.158;24.732;2023-04-24T06:44:01;99522.13;;;14.83;92.03
8051;BME280;4068;42.158;24.732;2023-04-24T06:46:26;99497.34;;;14.91;90.99
8051;BME280;4068;42.158;24.732;2023-04-24T06:48:53;99519.47;;;15.01;91.31
8051;BME280;4068;42.158;24.732;2023-04-24T06:51:25;99512.78;;;15.41;90.64
8051;BME280;4068;42.158;24.732;2023-04-24T06:53:55;99526.47;;;15.64;88.17
8051;BME280;4068;42.158;24.732;2023-04-24T06:56:23;99515.59;;;15.84;87.72
8051;BME280;4068;42.158;24.732;2023-04-24T06:58:50;99509.81;;;15.97;85.62
8051;BME280;4068;42.158;24.732;2023-04-24T07:01:16;99529.69;;;15.94;83.97
8051;BME280;4068;42.158;24.732;2023-04-24T07:03:41;99525.50;;;15.92;84.51
8051;BME280;4068;42.158;24.732;2023-04-24T07:06:07;99518.38;;;15.56;85.57
8051;BME280;4068;42.158;24.732;2023-04-24T07:08:33;99525.63;;;15.64;86.33
8051;BME280;4068;42.158;24.732;2023-04-24T07:10:59;99505.41;;;15.87;85.33
8051;BME280;4068;42.158;24.732;2023-04-24T07:13:25;99536.28;;;16.43;82.71
8051;BME280;4068;42.158;24.732;2023-04-24T07:15:51;99516.25;;;16.55;82.00
8051;BME280;4068;42.158;24.732;2023-04-24T07:18:19;99512.50;;;16.39;82.43
8051;BME280;4068;42.158;24.732;2023-04-24T07:20:45;99515.66;;;16.27;82.26
8051;BME280;4068;42.158;24.732;2023-04-24T07:23:10;99527.34;;;16.77;81.27
8051;BME280;4068;42.158;24.732;2023-04-24T07:25:36;99518.22;;;17.04;79.98
8051;BME280;4068;42.158;24.732;2023-04-24T07:28:01;99514.53;;;17.30;77.57
8051;BME280;4068;42.158;24.732;2023-04-24T07:30:27;99507.47;;;16.87;78.96
8051;BME280;4068;42.158;24.732;2023-04-24T07:32:54;99516.38;;;17.29;77.81
8051;BME280;4068;42.158;24.732;2023-04-24T07:35:20;99515.88;;;17.50;76.97
8051;BME280;4068;42.158;24.732;2023-04-24T07:37:46;99519.81;;;18.04;74.62
8051;BME280;4068;42.158;24.732;2023-04-24T07:40:12;99502.75;;;18.68;71.42
8051;BME280;4068;42.158;24.732;2023-04-24T07:42:38;99519.81;;;19.06;67.17
8051;BME280;4068;42.158;24.732;2023-04-24T07:45:04;99511.63;;;19.23;64.42
8051;BME280;4068;42.158;24.732;2023-04-24T07:47:30;99511.91;;;19.66;62.86
8051;BME280;4068;42.158;24.732;2023-04-24T07:49:56;99501.53;;;20.38;59.08
8051;BME280;4068;42.158;24.732;2023-04-24T07:52:21;99469.72;;;20.11;57.59
8051;BME280;4068;42.158;24.732;2023-04-24T07:54:47;99488.13;;;19.93;58.90
8051;BME280;4068;42.158;24.732;2023-04-24T07:57:12;99489.44;;;19.44;60.24
8051;BME280;4068;42.158;24.732;2023-04-24T07:59:39;99456.41;;;18.97;60.36
8051;BME280;4068;42.158;24.732;2023-04-24T08:02:04;99462.06;;;19.02;60.88
8051;BME280;4068;42.158;24.732;2023-04-24T08:04:31;99480.31;;;19.07;61.53
8051;BME280;4068;42.158;24.732;2023-04-24T08:06:56;99470.31;;;19.39;61.95
8051;BME280;4068;42.158;24.732;2023-04-24T08:09:22;99476.94;;;19.13;60.69
8051;BME280;4068;42.158;24.732;2023-04-24T08:11:47;99482.19;;;19.06;61.97
8051;BME280;4068;42.158;24.732;2023-04-24T08:14:13;99452.03;;;18.73;62.32
8051;BME280;4068;42.158;24.732;2023-04-24T08:16:40;99467.81;;;18.44;63.34
8051;BME280;4068;42.158;24.732;2023-04-24T08:19:05;99456.94;;;17.98;64.47
8051;BME280;4068;42.158;24.732;2023-04-24T08:21:31;99476.94;;;17.71;67.11
8051;BME280;4068;42.158;24.732;2023-04-24T08:23:56;99464.34;;;17.96;66.30
8051;BME280;4068;42.158;24.732;2023-04-24T08:26:22;99445.44;;;17.73;66.14
8051;BME280;4068;42.158;24.732;2023-04-24T08:28:47;99463.31;;;17.89;66.15
8051;BME280;4068;42.158;24.732;2023-04-24T08:31:13;99468.09;;;17.62;67.12
8051;BME280;4068;42.158;24.732;2023-04-24T08:33:38;99450.34;;;17.53;69.00
8051;BME280;4068;42.158;24.732;2023-04-24T08:36:06;99435.72;;;17.72;68.88
8051;BME280;4068;42.158;24.732;2023-04-24T08:38:32;99444.47;;;17.57;68.45
8051;BME280;4068;42.158;24.732;2023-04-24T08:41:00;99443.09;;;17.70;68.90
8051;BME280;4068;42.158;24.732;2023-04-24T08:43:26;99438.16;;;17.98;69.50
8051;BME280;4068;42.158;24.732;2023-04-24T08:45:54;99407.94;;;17.56;70.56
8051;BME280;4068;42.158;24.732;2023-04-24T08:48:22;99423.06;;;17.41;70.56
8051;BME280;4068;42.158;24.732;2023-04-24T08:50:48;99437.13;;;17.43;72.08
8051;BME280;4068;42.158;24.732;2023-04-24T08:53:15;99427.22;;;17.60;71.73
8051;BME280;4068;42.158;24.732;2023-04-24T08:55:41;99430.91;;;18.07;69.99
8051;BME280;4068;42.158;24.732;2023-04-24T08:58:08;99435.94;;;18.41;68.58
8051;BME280;4068;42.158;24.732;2023-04-24T09:00:34;99421.25;;;18.75;67.59
8051;BME280;4068;42.158;24.732;2023-04-24T09:03:00;99411.72;;;18.50;66.73
8051;BME280;4068;42.158;24.732;2023-04-24T09:05:27;99416.31;;;18.41;69.34
8051;BME280;4068;42.158;24.732;2023-04-24T09:07:55;99427.78;;;18.26;68.50
8051;BME280;4068;42.158;24.732;2023-04-24T09:10:25;99414.97;;;18.05;69.72
8051;BME280;4068;42.158;24.732;2023-04-24T09:12:51;99420.00;;;18.08;69.01
8051;BME280;4068;42.158;24.732;2023-04-24T09:15:18;99421.00;;;18.16;68.68
8051;BME280;4068;42.158;24.732;2023-04-24T09:17:45;99422.03;;;18.06;69.57
8051;BME280;4068;42.158;24.732;2023-04-24T09:20:11;99411.56;;;17.80;71.65
8051;BME280;4068;42.158;24.732;2023-04-24T09:22:37;99414.00;;;17.98;70.76
8051;BME280;4068;42.158;24.732;2023-04-24T09:25:07;99408.72;;;18.21;70.28
8051;BME280;4068;42.158;24.732;2023-04-24T09:27:33;99410.09;;;18.40;69.20
8051;BME280;4068;42.158;24.732;2023-04-24T09:30:00;99407.97;;;18.36;68.53
8051;BME280;4068;42.158;24.732;2023-04-24T09:32:26;99401.50;;;18.45;67.96
8051;BME280;4068;42.158;24.732;2023-04-24T09:35:24;99391.13;;;18.42;67.86
8051;BME280;4068;42.158;24.732;2023-04-24T09:37:50;99399.00;;;18.43;69.06
8051;BME280;4068;42.158;24.732;2023-04-24T09:40:17;99395.00;;;18.39;68.53
8051;BME280;4068;42.158;24.732;2023-04-24T09:42:54;99381.03;;;18.44;69.36
8051;BME280;4068;42.158;24.732;2023-04-24T09:45:20;99401.69;;;18.20;69.10
8051;BME280;4068;42.158;24.732;2023-04-24T09:47:45;99360.16;;;18.31;67.16
8051;BME280;4068;42.158;24.732;2023-04-24T09:50:12;99389.63;;;18.39;68.16
8051;BME280;4068;42.158;24.732;2023-04-24T09:52:43;99385.94;;;18.40;68.91
8051;BME280;4068;42.158;24.732;2023-04-24T09:55:19;99377.19;;;18.15;68.93
8051;BME280;4068;42.158;24.732;2023-04-24T10:00:18;99369.72;;;18.80;68.16
8051;BME280;4068;42.158;24.732;2023-04-24T10:02:44;99368.00;;;19.02;66.51
8051;BME280;4068;42.158;24.732;2023-04-24T10:05:11;99353.75;;;19.17;66.07
8051;BME280;4068;42.158;24.732;2023-04-24T10:07:37;99363.41;;;19.56;63.97
8051;BME280;4068;42.158;24.732;2023-04-24T10:10:03;99372.03;;;19.96;63.34
8051;BME280;4068;42.158;24.732;2023-04-24T10:12:30;99377.94;;;19.76;61.65
8051;BME280;4068;42.158;24.732;2023-04-24T10:14:56;99363.84;;;19.89;62.81
8051;BME280;4068;42.158;24.732;2023-04-24T10:17:23;99330.16;;;20.08;62.23
8051;BME280;4068;42.158;24.732;2023-04-24T10:19:51;99342.34;;;20.26;60.66
8051;BME280;4068;42.158;24.732;2023-04-24T10:22:17;99350.72;;;20.16;61.99
8051;BME280;4068;42.158;24.732;2023-04-24T10:24:43;99318.06;;;19.82;61.89
8051;BME280;4068;42.158;24.732;2023-04-24T10:27:09;99348.19;;;19.93;63.12
8051;BME280;4068;42.158;24.732;2023-04-24T10:29:35;99342.97;;;19.76;63.02
8051;BME280;4068;42.158;24.732;2023-04-24T10:32:01;99337.09;;;19.81;64.59
8051;BME280;4068;42.158;24.732;2023-04-24T10:34:27;99345.38;;;20.01;63.95
8051;BME280;4068;42.158;24.732;2023-04-24T10:36:54;99325.66;;;20.15;62.45
8051;BME280;4068;42.158;24.732;2023-04-24T10:39:21;99321.38;;;19.85;62.75
8051;BME280;4068;42.158;24.732;2023-04-24T10:41:48;99328.69;;;19.91;63.37
8051;BME280;4068;42.158;24.732;2023-04-24T10:44:15;99320.94;;;19.81;64.31
8051;BME280;4068;42.158;24.732;2023-04-24T10:46:46;99292.44;;;19.87;63.88
8051;BME280;4068;42.158;24.732;2023-04-24T10:49:15;99300.06;;;20.05;63.63
8051;BME280;4068;42.158;24.732;2023-04-24T10:51:51;99279.00;;;19.87;62.63
8051;BME280;4068;42.158;24.732;2023-04-24T10:54:35;99304.91;;;20.31;62.52
8051;BME280;4068;42.158;24.732;2023-04-24T11:02:38;99292.50;;;20.58;61.45
8051;BME280;4068;42.158;24.732;2023-04-24T11:05:05;99277.88;;;20.67;60.69
8051;BME280;4068;42.158;24.732;2023-04-24T11:10:38;99289.75;;;20.51;60.97
8051;BME280;4068;42.158;24.732;2023-04-24T11:13:04;99283.38;;;20.59;61.68
8051;BME280;4068;42.158;24.732;2023-04-24T11:15:29;99288.53;;;20.54;61.73
8051;BME280;4068;42.158;24.732;2023-04-24T11:17:55;99281.72;;;20.58;61.54
8051;BME280;4068;42.158;24.732;2023-04-24T11:20:23;99281.25;;;20.76;61.98
8051;BME280;4068;42.158;24.732;2023-04-24T11:22:52;99271.66;;;20.95;60.93
8051;BME280;4068;42.158;24.732;2023-04-24T11:25:18;99272.13;;;21.06;61.35
8051;BME280;4068;42.158;24.732;2023-04-24T11:27:44;99270.44;;;20.98;61.25
8051;BME280;4068;42.158;24.732;2023-04-24T11:30:17;99264.25;;;21.04;61.53
8051;BME280;4068;42.158;24.732;2023-04-24T11:32:47;99244.00;;;21.21;60.06
8051;BME280;4068;42.158;24.732;2023-04-24T11:35:22;99253.84;;;21.43;60.30
8051;BME280;4068;42.158;24.732;2023-04-24T11:37:53;99241.53;;;21.75;59.49
8051;BME280;4068;42.158;24.732;2023-04-24T11:40:20;99249.63;;;21.82;59.40
8051;BME280;4068;42.158;24.732;2023-04-24T11:42:49;99226.16;;;21.69;59.56
8051;BME280;4068;42.158;24.732;2023-04-24T11:45:16;99229.09;;;21.74;59.26
8051;BME280;4068;42.158;24.732;2023-04-24T11:47:43;99236.38;;;22.00;59.13
8051;BME280;4068;42.158;24.732;2023-04-24T11:50:11;99232.88;;;22.13;58.47
8051;BME280;4068;42.158;24.732;2023-04-24T11:52:39;99221.00;;;21.81;58.94
8051;BME280;4068;42.158;24.732;2023-04-24T11:57:54;99212.97;;;22.41;59.44
8051;BME280;4068;42.158;24.732;2023-04-24T12:00:29;99205.06;;;22.66;57.07
8051;BME280;4068;42.158;24.732;2023-04-24T12:03:06;99201.09;;;22.55;57.62
8051;BME280;4068;42.158;24.732;2023-04-24T12:05:32;99208.78;;;22.58;57.49
8051;BME280;4068;42.158;24.732;2023-04-24T12:07:57;99200.91;;;22.57;57.50
8051;BME280;4068;42.158;24.732;2023-04-24T12:10:25;99188.41;;;22.69;57.69
8051;BME280;4068;42.158;24.732;2023-04-24T12:12:51;99186.50;;;22.83;57.15
8051;BME280;4068;42.158;24.732;2023-04-24T12:15:19;99183.81;;;22.70;57.65
8051;BME280;4068;42.158;24.732;2023-04-24T12:17:45;99164.53;;;22.53;57.93
8051;BME280;4068;42.158;24.732;2023-04-24T12:20:11;99151.88;;;22.06;59.14
8051;BME280;4068;42.158;24.732;2023-04-24T12:22:54;99154.34;;;22.21;60.19
8051;BME280;4068;42.158;24.732;2023-04-24T12:25:21;99142.53;;;22.22;59.91
8051;BME280;4068;42.158;24.732;2023-04-24T12:30:28;99135.84;;;22.58;58.88
8051;BME280;4068;42.158;24.732;2023-04-24T12:32:54;99137.28;;;22.61;59.00
8051;BME280;4068;42.158;24.732;2023-04-24T12:35:24;99140.84;;;22.55;59.42
8051;BME280;4068;42.158;24.732;2023-04-24T12:37:50;99117.50;;;22.67;58.57
8051;BME280;4068;42.158;24.732;2023-04-24T12:40:17;99126.03;;;22.78;59.13
8051;BME280;4068;42.158;24.732;2023-04-24T12:42:47;99126.84;;;22.78;58.54
8051;BME280;4068;42.158;24.732;2023-04-24T12:45:15;99120.84;;;22.63;59.75
8051;BME280;4068;42.158;24.732;2023-04-24T12:47:42;99106.91;;;22.66;60.03
8051;BME280;4068;42.158;24.732;2023-04-24T12:50:12;99105.94;;;22.53;59.42
8051;BME280;4068;42.158;24.732;2023-04-24T12:52:38;99097.25;;;22.45;60.25
8051;BME280;4068;42.158;24.732;2023-04-24T12:55:05;99086.59;;;22.63;60.21
8051;BME280;4068;42.158;24.732;2023-04-24T12:57:33;99087.97;;;22.79;59.60
8051;BME280;4068;42.158;24.732;2023-04-24T13:00:00;99080.53;;;22.68;59.03
8051;BME280;4068;42.158;24.732;2023-04-24T13:05:11;99078.72;;;22.48;58.61
8051;BME280;4068;42.158;24.732;2023-04-24T13:07:38;99077.69;;;22.49;58.59
8051;BME280;4068;42.158;24.732;2023-04-24T13:10:04;99074.75;;;22.51;58.01
8051;BME280;4068;42.158;24.732;2023-04-24T13:12:30;99067.25;;;22.60;57.62
8051;BME280;4068;42.158;24.732;2023-04-24T13:14:57;99041.97;;;22.40;57.48
8051;BME280;4068;42.158;24.732;2023-04-24T13:17:23;99067.09;;;22.48;57.11
8051;BME280;4068;42.158;24.732;2023-04-24T13:19:50;99046.94;;;22.30;57.84
8051;BME280;4068;42.158;24.732;2023-04-24T13:22:16;99047.38;;;22.40;58.21
8051;BME280;4068;42.158;24.732;2023-04-24T13:24:44;99031.09;;;22.54;57.07